sensor_id;sensor_type;location;lat;lon;timestamp;P1;durP1;ratioP1;P2;durP2;ratioP2
76631;SDS011;65526;48.578;-4.520;2022-12-07T00:01:27;16.83;;;7.65;;
76631;SDS011;65526;48.578;-4.520;2022-12-07T00:03:56;18.40;;;8.02;;
76631;SDS011;65526;48.578;-4.520;2022-12-07T00:06:33;16.45;;;7.57;;
76631;SDS011;65526;48.578;-4.520;2022-12-07T00:09:02;16.30;;;7.53;;
76631;SDS011;65526;48.578;-4.520;2022-12-07T00:11:30;14.55;;;7.25;;
76631;SDS011;65526;48.578;-4.520;2022-12-07T00:13:58;16.88;;;7.82;;
76631;SDS011;65526;48.578;-4.520;2022-12-07T00:16:28;17.00;;;7.05;;
76631;SDS011;65526;48.578;-4.520;2022-12-07T00:18:56;17.30;;;7.60;;
76631;SDS011;65526;48.578;-4.520;2022-12-07T00:21:27;18.25;;;7.85;;
76631;SDS011;65526;48.578;-4.520;2022-12-07T00:23:55;13.30;;;7.00;;
76631;SDS011;65526;48.578;-4.520;2022-12-07T00:26:23;17.80;;;8.27;;
76631;SDS011;65526;48.578;-4.520;2022-12-07T00:28:56;18.02;;;8.18;;
76631;SDS011;65526;48.578;-4.520;2022-12-07T00:31:25;17.10;;;8.15;;
76631;SDS011;65526;48.578;-4.520;2022-12-07T00:33:52;14.65;;;7.38;;
76631;SDS011;65526;48.578;-4.520;2022-12-07T00:36:20;16.20;;;8.23;;
76631;SDS011;65526;48.578;-4.520;2022-12-07T00:38:47;19.75;;;8.90;;
76631;SDS011;65526;48.578;-4.520;2022-12-07T00:41:15;23.17;;;9.15;;
76631;SDS011;65526;48.578;-4.520;2022-12-07T00:43:46;19.60;;;9.45;;
76631;SDS011;65526;48.578;-4.520;2022-12-07T00:46:14;24.13;;;10.88;;
76631;SDS011;65526;48.578;-4.520;2022-12-07T00:48:41;20.80;;;9.32;;
76631;SDS011;65526;48.578;-4.520;2022-12-07T00:51:09;20.73;;;9.23;;
76631;SDS011;65526;48.578;-4.520;2022-12-07T00:53:36;17.23;;;9.27;;
76631;SDS011;65526;48.578;-4.520;2022-12-07T00:56:13;20.70;;;9.02;;
76631;SDS011;65526;48.578;-4.520;2022-12-07T00:58:41;19.67;;;9.13;;
76631;SDS011;65526;48.578;-4.520;2022-12-07T01:04:35;17.77;;;9.40;;
76631;SDS011;65526;48.578;-4.520;2022-12-07T01:07:02;17.42;;;9.10;;
76631;SDS011;65526;48.578;-4.520;2022-12-07T01:09:28;17.83;;;8.98;;
76631;SDS011;65526;48.578;-4.520;2022-12-07T01:11:55;19.30;;;9.18;;
76631;SDS011;65526;48.578;-4.520;2022-12-07T01:14:21;18.33;;;9.30;;
76631;SDS011;65526;48.578;-4.520;2022-12-07T01:16:48;18.63;;;9.73;;
76631;SDS011;65526;48.578;-4.520;2022-12-07T01:19:15;18.83;;;9.10;;
76631;SDS011;65526;48.578;-4.520;2022-12-07T01:21:42;19.90;;;9.88;;
76631;SDS011;65526;48.578;-4.520;2022-12-07T01:24:09;15.32;;;8.52;;
76631;SDS011;65526;48.578;-4.520;2022-12-07T01:26:37;18.23;;;8.30;;
76631;SDS011;65526;48.578;-4.520;2022-12-07T01:29:04;17.45;;;9.00;;
76631;SDS011;65526;48.578;-4.520;2022-12-07T01:31:30;18.27;;;8.82;;
76631;SDS011;65526;48.578;-4.520;2022-12-07T01:33:57;16.92;;;8.68;;
76631;SDS011;65526;48.578;-4.520;2022-12-07T01:36:26;14.60;;;7.40;;
76631;SDS011;65526;48.578;-4.520;2022-12-07T01:38:55;19.05;;;8.70;;
76631;SDS011;65526;48.578;-4.520;2022-12-07T01:41:24;19.05;;;9.18;;
76631;SDS011;65526;48.578;-4.520;2022-12-07T01:44:13;19.55;;;8.48;;
76631;SDS011;65526;48.578;-4.520;2022-12-07T01:46:48;20.35;;;9.10;;
76631;SDS011;65526;48.578;-4.520;2022-12-07T01:51:46;22.55;;;9.90;;
76631;SDS011;65526;48.578;-4.520;2022-12-07T01:54:15;17.38;;;9.10;;
76631;SDS011;65526;48.578;-4.520;2022-12-07T01:56:44;19.35;;;9.40;;
76631;SDS011;65526;48.578;-4.520;2022-12-07T01:59:15;20.55;;;9.10;;
76631;SDS011;65526;48.578;-4.520;2022-12-07T02:01:43;27.73;;;9.57;;
76631;SDS011;65526;48.578;-4.520;2022-12-07T02:04:10;21.48;;;9.27;;
76631;SDS011;65526;48.578;-4.520;2022-12-07T02:06:38;18.55;;;10.13;;
76631;SDS011;65526;48.578;-4.520;2022-12-07T02:09:04;22.80;;;10.68;;
76631;SDS011;65526;48.578;-4.520;2022-12-07T02:11:31;20.55;;;9.07;;
76631;SDS011;65526;48.578;-4.520;2022-12-07T02:13:57;18.10;;;8.68;;
76631;SDS011;65526;48.578;-4.520;2022-12-07T02:19:39;20.98;;;9.15;;
76631;SDS011;65526;48.578;-4.520;2022-12-07T02:25:14;18.23;;;9.05;;
76631;SDS011;65526;48.578;-4.520;2022-12-07T02:31:02;18.33;;;8.55;;
76631;SDS011;65526;48.578;-4.520;2022-12-07T02:33:45;16.98;;;7.57;;
76631;SDS011;65526;48.578;-4.520;2022-12-07T02:36:19;15.57;;;8.02;;
76631;SDS011;65526;48.578;-4.520;2022-12-07T02:41:33;20.65;;;9.65;;
76631;SDS011;65526;48.578;-4.520;2022-12-07T02:44:06;21.45;;;8.32;;
76631;SDS011;65526;48.578;-4.520;2022-12-07T02:46:37;18.30;;;8.60;;
76631;SDS011;65526;48.578;-4.520;2022-12-07T02:49:08;17.95;;;8.35;;
76631;SDS011;65526;48.578;-4.520;2022-12-07T02:51:38;15.75;;;8.23;;
76631;SDS011;65526;48.578;-4.520;2022-12-07T02:54:14;16.40;;;8.02;;
76631;SDS011;65526;48.578;-4.520;2022-12-07T03:05:02;17.90;;;7.68;;
76631;SDS011;65526;48.578;-4.520;2022-12-07T03:13:26;13.07;;;6.82;;
76631;SDS011;65526;48.578;-4.520;2022-12-07T03:16:15;14.63;;;7.28;;
76631;SDS011;65526;48.578;-4.520;2022-12-07T03:21:37;16.40;;;7.40;;
76631;SDS011;65526;48.578;-4.520;2022-12-07T03:24:08;15.45;;;6.28;;
76631;SDS011;65526;48.578;-4.520;2022-12-07T03:26:41;12.50;;;6.05;;
76631;SDS011;65526;48.578;-4.520;2022-12-07T03:29:19;13.00;;;6.40;;
76631;SDS011;65526;48.578;-4.520;2022-12-07T03:32:01;12.68;;;5.50;;
76631;SDS011;65526;48.578;-4.520;2022-12-07T03:34:34;13.90;;;6.55;;
76631;SDS011;65526;48.578;-4.520;2022-12-07T03:40:17;14.02;;;6.30;;
76631;SDS011;65526;48.578;-4.520;2022-12-07T03:42:51;13.75;;;6.47;;
76631;SDS011;65526;48.578;-4.520;2022-12-07T03:45:20;14.60;;;6.05;;
76631;SDS011;65526;48.578;-4.520;2022-12-07T03:47:55;10.63;;;5.63;;
76631;SDS011;65526;48.578;-4.520;2022-12-07T03:53:28;14.23;;;6.47;;
76631;SDS011;65526;48.578;-4.520;2022-12-07T03:56:02;14.02;;;6.60;;
76631;SDS011;65526;48.578;-4.520;2022-12-07T03:58:29;12.70;;;6.53;;
76631;SDS011;65526;48.578;-4.520;2022-12-07T04:00:57;11.05;;;5.93;;
76631;SDS011;65526;48.578;-4.520;2022-12-07T04:03:23;13.27;;;6.93;;
76631;SDS011;65526;48.578;-4.520;2022-12-07T04:05:50;12.60;;;5.85;;
76631;SDS011;65526;48.578;-4.520;2022-12-07T04:08:16;15.57;;;7.68;;
76631;SDS011;65526;48.578;-4.520;2022-12-07T04:10:43;15.40;;;5.72;;
76631;SDS011;65526;48.578;-4.520;2022-12-07T04:13:09;12.90;;;7.03;;
76631;SDS011;65526;48.578;-4.520;2022-12-07T04:15:36;15.02;;;6.18;;
76631;SDS011;65526;48.578;-4.520;2022-12-07T04:18:02;13.40;;;6.22;;
76631;SDS011;65526;48.578;-4.520;2022-12-07T04:20:29;11.55;;;6.20;;
76631;SDS011;65526;48.578;-4.520;2022-12-07T04:22:55;11.65;;;5.97;;
76631;SDS011;65526;48.578;-4.520;2022-12-07T04:25:22;13.13;;;6.35;;
76631;SDS011;65526;48.578;-4.520;2022-12-07T04:27:48;10.63;;;5.63;;
76631;SDS011;65526;48.578;-4.520;2022-12-07T04:30:14;11.55;;;5.90;;
76631;SDS011;65526;48.578;-4.520;2022-12-07T04:32:41;14.68;;;5.80;;
76631;SDS011;65526;48.578;-4.520;2022-12-07T04:35:08;11.70;;;6.10;;
76631;SDS011;65526;48.578;-4.520;2022-12-07T04:37:34;14.63;;;6.68;;
76631;SDS011;65526;48.578;-4.520;2022-12-07T04:40:01;14.15;;;5.72;;
76631;SDS011;65526;48.578;-4.520;2022-12-07T04:42:28;13.10;;;6.97;;
76631;SDS011;65526;48.578;-4.520;2022-12-07T04:44:54;11.50;;;6.05;;
76631;SDS011;65526;48.578;-4.520;2022-12-07T04:47:21;10.70;;;5.90;;
76631;SDS011;65526;48.578;-4.520;2022-12-07T04:49:47;14.05;;;5.95;;
76631;SDS011;65526;48.578;-4.520;2022-12-07T04:52:14;14.13;;;6.38;;
76631;SDS011;65526;48.578;-4.520;2022-12-07T04:54:40;13.80;;;6.72;;
76631;SDS011;65526;48.578;-4.520;2022-12-07T04:57:07;14.13;;;6.85;;
76631;SDS011;65526;48.578;-4.520;2022-12-07T04:59:33;12.15;;;6.47;;
76631;SDS011;65526;48.578;-4.520;2022-12-07T05:01:59;12.80;;;6.38;;
76631;SDS011;65526;48.578;-4.520;2022-12-07T05:04:26;12.07;;;5.75;;
76631;SDS011;65526;48.578;-4.520;2022-12-07T05:06:52;13.00;;;6.35;;
76631;SDS011;65526;48.578;-4.520;2022-12-07T05:09:19;11.27;;;5.97;;
76631;SDS011;65526;48.578;-4.520;2022-12-07T05:11:45;14.43;;;6.85;;
76631;SDS011;65526;48.578;-4.520;2022-12-07T05:14:16;11.68;;;5.60;;
76631;SDS011;65526;48.578;-4.520;2022-12-07T05:16:47;14.30;;;6.40;;
76631;SDS011;65526;48.578;-4.520;2022-12-07T05:19:15;14.98;;;6.97;;
76631;SDS011;65526;48.578;-4.520;2022-12-07T05:21:43;11.70;;;6.18;;
76631;SDS011;65526;48.578;-4.520;2022-12-07T05:24:10;11.32;;;6.30;;
76631;SDS011;65526;48.578;-4.520;2022-12-07T05:26:39;14.07;;;6.95;;
76631;SDS011;65526;48.578;-4.520;2022-12-07T05:29:06;15.45;;;6.70;;
76631;SDS011;65526;48.578;-4.520;2022-12-07T05:31:32;11.65;;;5.78;;
76631;SDS011;65526;48.578;-4.520;2022-12-07T05:33:59;14.93;;;6.55;;
76631;SDS011;65526;48.578;-4.520;2022-12-07T05:36:26;11.85;;;5.85;;
76631;SDS011;65526;48.578;-4.520;2022-12-07T05:38:54;13.70;;;6.15;;
76631;SDS011;65526;48.578;-4.520;2022-12-07T05:41:20;11.98;;;6.20;;
76631;SDS011;65526;48.578;-4.520;2022-12-07T05:44:05;11.77;;;5.57;;
76631;SDS011;65526;48.578;-4.520;2022-12-07T05:46:31;12.85;;;5.75;;
76631;SDS011;65526;48.578;-4.520;2022-12-07T05:48:59;12.50;;;5.88;;
76631;SDS011;65526;48.578;-4.520;2022-12-07T05:51:25;9.82;;;5.68;;
76631;SDS011;65526;48.578;-4.520;2022-12-07T05:53:52;12.10;;;5.93;;
76631;SDS011;65526;48.578;-4.520;2022-12-07T05:56:19;15.00;;;6.15;;
76631;SDS011;65526;48.578;-4.520;2022-12-07T05:58:45;13.75;;;7.00;;
76631;SDS011;65526;48.578;-4.520;2022-12-07T06:01:31;13.07;;;6.78;;
76631;SDS011;65526;48.578;-4.520;2022-12-07T06:03:57;12.63;;;6.32;;
76631;SDS011;65526;48.578;-4.520;2022-12-07T06:06:24;10.32;;;5.65;;
76631;SDS011;65526;48.578;-4.520;2022-12-07T06:08:50;14.50;;;6.55;;
76631;SDS011;65526;48.578;-4.520;2022-12-07T06:11:17;13.27;;;6.90;;
76631;SDS011;65526;48.578;-4.520;2022-12-07T06:14:02;15.85;;;6.90;;
76631;SDS011;65526;48.578;-4.520;2022-12-07T06:16:28;14.55;;;6.72;;
76631;SDS011;65526;48.578;-4.520;2022-12-07T06:18:54;15.68;;;6.85;;
76631;SDS011;65526;48.578;-4.520;2022-12-07T06:21:21;15.75;;;7.07;;
76631;SDS011;65526;48.578;-4.520;2022-12-07T06:23:48;13.10;;;6.57;;
76631;SDS011;65526;48.578;-4.520;2022-12-07T06:26:15;14.70;;;7.18;;
76631;SDS011;65526;48.578;-4.520;2022-12-07T06:28:41;16.67;;;8.00;;
76631;SDS011;65526;48.578;-4.520;2022-12-07T06:31:08;13.70;;;7.22;;
76631;SDS011;65526;48.578;-4.520;2022-12-07T06:33:35;14.30;;;7.60;;
76631;SDS011;65526;48.578;-4.520;2022-12-07T06:36:01;13.13;;;6.45;;
76631;SDS011;65526;48.578;-4.520;2022-12-07T06:38:27;13.40;;;6.32;;
76631;SDS011;65526;48.578;-4.520;2022-12-07T06:40:54;12.35;;;6.93;;
76631;SDS011;65526;48.578;-4.520;2022-12-07T06:43:20;12.73;;;6.25;;
76631;SDS011;65526;48.578;-4.520;2022-12-07T06:45:47;12.20;;;5.80;;
76631;SDS011;65526;48.578;-4.520;2022-12-07T06:48:13;12.95;;;6.80;;
76631;SDS011;65526;48.578;-4.520;2022-12-07T06:50:40;11.82;;;6.20;;
76631;SDS011;65526;48.578;-4.520;2022-12-07T06:53:07;13.27;;;6.57;;
76631;SDS011;65526;48.578;-4.520;2022-12-07T06:55:33;13.75;;;6.18;;
76631;SDS011;65526;48.578;-4.520;2022-12-07T06:58:00;15.45;;;7.50;;
76631;SDS011;65526;48.578;-4.520;2022-12-07T07:00:27;14.40;;;6.85;;
76631;SDS011;65526;48.578;-4.520;2022-12-07T07:02:54;11.82;;;6.45;;
76631;SDS011;65526;48.578;-4.520;2022-12-07T07:05:20;11.55;;;6.53;;
76631;SDS011;65526;48.578;-4.520;2022-12-07T07:07:48;16.02;;;7.47;;
76631;SDS011;65526;48.578;-4.520;2022-12-07T07:10:16;13.23;;;6.32;;
76631;SDS011;65526;48.578;-4.520;2022-12-07T07:12:42;12.38;;;5.90;;
76631;SDS011;65526;48.578;-4.520;2022-12-07T07:15:09;16.92;;;6.45;;
76631;SDS011;65526;48.578;-4.520;2022-12-07T07:17:37;12.15;;;6.30;;
76631;SDS011;65526;48.578;-4.520;2022-12-07T07:20:04;10.65;;;6.55;;
76631;SDS011;65526;48.578;-4.520;2022-12-07T07:22:31;12.68;;;6.65;;
76631;SDS011;65526;48.578;-4.520;2022-12-07T07:24:57;11.68;;;6.80;;
76631;SDS011;65526;48.578;-4.520;2022-12-07T07:27:24;13.60;;;6.88;;
76631;SDS011;65526;48.578;-4.520;2022-12-07T07:29:50;13.10;;;7.57;;
76631;SDS011;65526;48.578;-4.520;2022-12-07T07:32:16;12.82;;;6.90;;
76631;SDS011;65526;48.578;-4.520;2022-12-07T07:34:43;14.50;;;7.68;;
76631;SDS011;65526;48.578;-4.520;2022-12-07T07:37:09;13.20;;;6.82;;
76631;SDS011;65526;48.578;-4.520;2022-12-07T07:39:38;13.77;;;7.55;;
76631;SDS011;65526;48.578;-4.520;2022-12-07T07:42:05;12.57;;;7.55;;
76631;SDS011;65526;48.578;-4.520;2022-12-07T07:44:33;10.70;;;6.40;;
76631;SDS011;65526;48.578;-4.520;2022-12-07T07:47:01;14.13;;;7.63;;
76631;SDS011;65526;48.578;-4.520;2022-12-07T07:49:27;11.05;;;6.70;;
76631;SDS011;65526;48.578;-4.520;2022-12-07T07:51:53;12.27;;;6.75;;
76631;SDS011;65526;48.578;-4.520;2022-12-07T07:54:20;13.68;;;7.80;;
76631;SDS011;65526;48.578;-4.520;2022-12-07T07:56:46;12.82;;;6.55;;
76631;SDS011;65526;48.578;-4.520;2022-12-07T07:59:12;12.70;;;6.97;;
76631;SDS011;65526;48.578;-4.520;2022-12-07T08:01:40;13.98;;;6.82;;
76631;SDS011;65526;48.578;-4.520;2022-12-07T08:04:07;15.20;;;6.75;;
76631;SDS011;65526;48.578;-4.520;2022-12-07T08:06:33;11.93;;;6.38;;
76631;SDS011;65526;48.578;-4.520;2022-12-07T08:09:00;12.07;;;6.53;;
76631;SDS011;65526;48.578;-4.520;2022-12-07T08:11:27;14.73;;;6.85;;
76631;SDS011;65526;48.578;-4.520;2022-12-07T08:13:53;13.23;;;6.75;;
76631;SDS011;65526;48.578;-4.520;2022-12-07T08:16:19;14.80;;;6.60;;
76631;SDS011;65526;48.578;-4.520;2022-12-07T08:18:46;11.88;;;5.95;;
76631;SDS011;65526;48.578;-4.520;2022-12-07T08:21:13;11.73;;;6.45;;
76631;SDS011;65526;48.578;-4.520;2022-12-07T08:23:41;15.50;;;7.07;;
76631;SDS011;65526;48.578;-4.520;2022-12-07T08:26:09;11.57;;;6.75;;
76631;SDS011;65526;48.578;-4.520;2022-12-07T08:28:38;11.38;;;6.90;;
76631;SDS011;65526;48.578;-4.520;2022-12-07T08:31:06;11.40;;;6.18;;
76631;SDS011;65526;48.578;-4.520;2022-12-07T08:33:37;11.02;;;6.35;;
76631;SDS011;65526;48.578;-4.520;2022-12-07T08:36:05;11.52;;;6.53;;
76631;SDS011;65526;48.578;-4.520;2022-12-07T08:38:34;10.57;;;5.93;;
76631;SDS011;65526;48.578;-4.520;2022-12-07T08:41:02;13.15;;;7.82;;
76631;SDS011;65526;48.578;-4.520;2022-12-07T08:43:29;9.45;;;5.72;;
76631;SDS011;65526;48.578;-4.520;2022-12-07T08:46:02;11.73;;;6.10;;
76631;SDS011;65526;48.578;-4.520;2022-12-07T08:48:39;10.77;;;5.88;;
76631;SDS011;65526;48.578;-4.520;2022-12-07T08:51:10;10.27;;;6.13;;
76631;SDS011;65526;48.578;-4.520;2022-12-07T08:53:37;9.88;;;5.90;;
76631;SDS011;65526;48.578;-4.520;2022-12-07T08:56:05;11.80;;;6.65;;
76631;SDS011;65526;48.578;-4.520;2022-12-07T08:58:33;10.80;;;6.70;;
76631;SDS011;65526;48.578;-4.520;2022-12-07T09:01:00;11.40;;;6.30;;
76631;SDS011;65526;48.578;-4.520;2022-12-07T09:03:27;14.05;;;6.97;;
76631;SDS011;65526;48.578;-4.520;2022-12-07T09:05:54;12.93;;;6.72;;
76631;SDS011;65526;48.578;-4.520;2022-12-07T09:08:21;13.98;;;7.97;;
76631;SDS011;65526;48.578;-4.520;2022-12-07T09:10:52;9.00;;;5.90;;
76631;SDS011;65526;48.578;-4.520;2022-12-07T09:13:18;9.85;;;5.80;;
76631;SDS011;65526;48.578;-4.520;2022-12-07T09:15:45;10.60;;;7.03;;
76631;SDS011;65526;48.578;-4.520;2022-12-07T09:18:11;11.18;;;6.55;;
76631;SDS011;65526;48.578;-4.520;2022-12-07T09:20:38;10.82;;;6.68;;
76631;SDS011;65526;48.578;-4.520;2022-12-07T09:23:07;13.10;;;7.63;;
76631;SDS011;65526;48.578;-4.520;2022-12-07T09:25:34;13.00;;;6.78;;
76631;SDS011;65526;48.578;-4.520;2022-12-07T09:28:01;13.77;;;7.57;;
76631;SDS011;65526;48.578;-4.520;2022-12-07T09:30:27;12.82;;;6.82;;
76631;SDS011;65526;48.578;-4.520;2022-12-07T09:32:55;17.83;;;7.78;;
76631;SDS011;65526;48.578;-4.520;2022-12-07T09:35:22;11.30;;;6.65;;
76631;SDS011;65526;48.578;-4.520;2022-12-07T09:37:49;10.40;;;6.30;;
76631;SDS011;65526;48.578;-4.520;2022-12-07T09:40:16;12.27;;;7.13;;
76631;SDS011;65526;48.578;-4.520;2022-12-07T09:42:47;12.25;;;6.60;;
76631;SDS011;65526;48.578;-4.520;2022-12-07T09:45:18;14.30;;;6.60;;
76631;SDS011;65526;48.578;-4.520;2022-12-07T09:47:51;12.43;;;6.90;;
76631;SDS011;65526;48.578;-4.520;2022-12-07T09:50:21;13.73;;;7.10;;
76631;SDS011;65526;48.578;-4.520;2022-12-07T09:52:51;11.55;;;6.38;;
76631;SDS011;65526;48.578;-4.520;2022-12-07T09:55:27;13.13;;;6.95;;
76631;SDS011;65526;48.578;-4.520;2022-12-07T09:57:56;12.48;;;6.50;;
76631;SDS011;65526;48.578;-4.520;2022-12-07T10:00:24;14.27;;;7.30;;
76631;SDS011;65526;48.578;-4.520;2022-12-07T10:05:29;19.10;;;10.38;;
76631;SDS011;65526;48.578;-4.520;2022-12-07T10:08:00;19.50;;;10.38;;
76631;SDS011;65526;48.578;-4.520;2022-12-07T10:10:29;13.45;;;8.32;;
76631;SDS011;65526;48.578;-4.520;2022-12-07T10:15:42;15.90;;;8.07;;
76631;SDS011;65526;48.578;-4.520;2022-12-07T10:18:41;10.20;;;6.47;;
76631;SDS011;65526;48.578;-4.520;2022-12-07T10:21:20;12.70;;;7.03;;
76631;SDS011;65526;48.578;-4.520;2022-12-07T10:26:33;9.70;;;6.93;;
76631;SDS011;65526;48.578;-4.520;2022-12-07T10:29:04;10.32;;;6.38;;
76631;SDS011;65526;48.578;-4.520;2022-12-07T10:31:39;9.77;;;6.32;;
76631;SDS011;65526;48.578;-4.520;2022-12-07T10:34:29;9.50;;;6.15;;
76631;SDS011;65526;48.578;-4.520;2022-12-07T10:39:53;11.55;;;7.68;;
76631;SDS011;65526;48.578;-4.520;2022-12-07T10:42:22;10.38;;;7.45;;
76631;SDS011;65526;48.578;-4.520;2022-12-07T10:50:56;13.55;;;7.68;;
76631;SDS011;65526;48.578;-4.520;2022-12-07T10:59:05;11.18;;;7.45;;
76631;SDS011;65526;48.578;-4.520;2022-12-07T11:07:12;11.30;;;7.95;;
76631;SDS011;65526;48.578;-4.520;2022-12-07T11:10:02;14.82;;;7.68;;
76631;SDS011;65526;48.578;-4.520;2022-12-07T11:18:09;9.45;;;7.13;;
76631;SDS011;65526;48.578;-4.520;2022-12-07T11:20:49;11.30;;;7.53;;
76631;SDS011;65526;48.578;-4.520;2022-12-07T11:26:22;11.50;;;6.35;;
76631;SDS011;65526;48.578;-4.520;2022-12-07T11:29:16;10.77;;;7.30;;
76631;SDS011;65526;48.578;-4.520;2022-12-07T11:34:55;14.80;;;8.40;;
76631;SDS011;65526;48.578;-4.520;2022-12-07T11:37:34;10.98;;;7.72;;
76631;SDS011;65526;48.578;-4.520;2022-12-07T11:40:04;12.30;;;8.30;;
76631;SDS011;65526;48.578;-4.520;2022-12-07T11:42:43;12.10;;;7.85;;
76631;SDS011;65526;48.578;-4.520;2022-12-07T11:45:26;11.52;;;7.40;;
76631;SDS011;65526;48.578;-4.520;2022-12-07T11:48:17;12.05;;;7.13;;
76631;SDS011;65526;48.578;-4.520;2022-12-07T11:50:54;12.07;;;7.20;;
76631;SDS011;65526;48.578;-4.520;2022-12-07T11:53:29;8.98;;;6.85;;
76631;SDS011;65526;48.578;-4.520;2022-12-07T11:56:20;10.38;;;6.65;;
76631;SDS011;65526;48.578;-4.520;2022-12-07T11:58:49;11.55;;;6.75;;
76631;SDS011;65526;48.578;-4.520;2022-12-07T12:06:58;10.80;;;8.18;;
76631;SDS011;65526;48.578;-4.520;2022-12-07T12:09:27;11.80;;;7.57;;
76631;SDS011;65526;48.578;-4.520;2022-12-07T12:17:59;11.77;;;7.65;;
76631;SDS011;65526;48.578;-4.520;2022-12-07T12:20:56;11.75;;;7.28;;
76631;SDS011;65526;48.578;-4.520;2022-12-07T12:26:22;9.73;;;6.18;;
76631;SDS011;65526;48.578;-4.520;2022-12-07T12:28:53;7.68;;;6.53;;
76631;SDS011;65526;48.578;-4.520;2022-12-07T12:33:55;11.57;;;7.65;;
76631;SDS011;65526;48.578;-4.520;2022-12-07T12:46:54;9.18;;;6.05;;
76631;SDS011;65526;48.578;-4.520;2022-12-07T12:51:57;9.32;;;6.40;;
76631;SDS011;65526;48.578;-4.520;2022-12-07T12:57:31;9.73;;;5.70;;
76631;SDS011;65526;48.578;-4.520;2022-12-07T12:59:58;8.18;;;5.25;;
76631;SDS011;65526;48.578;-4.520;2022-12-07T13:02:36;6.82;;;5.25;;
76631;SDS011;65526;48.578;-4.520;2022-12-07T13:15:44;10.88;;;5.82;;
76631;SDS011;65526;48.578;-4.520;2022-12-07T13:26:17;9.35;;;6.20;;
76631;SDS011;65526;48.578;-4.520;2022-12-07T13:29:06;9.55;;;5.95;;
76631;SDS011;65526;48.578;-4.520;2022-12-07T13:31:56;7.68;;;5.47;;
76631;SDS011;65526;48.578;-4.520;2022-12-07T13:34:29;9.98;;;5.22;;
76631;SDS011;65526;48.578;-4.520;2022-12-07T13:36:56;8.85;;;5.68;;
76631;SDS011;65526;48.578;-4.520;2022-12-07T13:39:24;7.95;;;5.80;;
76631;SDS011;65526;48.578;-4.520;2022-12-07T13:41:53;7.85;;;5.35;;
76631;SDS011;65526;48.578;-4.520;2022-12-07T13:44:22;8.38;;;5.82;;
76631;SDS011;65526;48.578;-4.520;2022-12-07T13:49:29;8.43;;;5.75;;
76631;SDS011;65526;48.578;-4.520;2022-12-07T13:52:14;9.70;;;5.90;;
76631;SDS011;65526;48.578;-4.520;2022-12-07T13:54:47;9.65;;;5.22;;
76631;SDS011;65526;48.578;-4.520;2022-12-07T13:57:16;9.68;;;6.00;;
76631;SDS011;65526;48.578;-4.520;2022-12-07T13:59:43;9.77;;;5.45;;
76631;SDS011;65526;48.578;-4.520;2022-12-07T14:02:17;8.90;;;5.15;;
76631;SDS011;65526;48.578;-4.520;2022-12-07T14:04:50;7.18;;;4.70;;
76631;SDS011;65526;48.578;-4.520;2022-12-07T14:07:27;8.30;;;5.50;;
76631;SDS011;65526;48.578;-4.520;2022-12-07T14:09:55;9.30;;;5.57;;
76631;SDS011;65526;48.578;-4.520;2022-12-07T14:12:26;7.10;;;5.05;;
76631;SDS011;65526;48.578;-4.520;2022-12-07T14:14:54;8.65;;;5.35;;
76631;SDS011;65526;48.578;-4.520;2022-12-07T14:17:23;9.00;;;5.38;;
76631;SDS011;65526;48.578;-4.520;2022-12-07T14:19:52;10.18;;;5.72;;
76631;SDS011;65526;48.578;-4.520;2022-12-07T14:27:56;9.75;;;6.28;;
76631;SDS011;65526;48.578;-4.520;2022-12-07T14:30:25;9.98;;;5.95;;
76631;SDS011;65526;48.578;-4.520;2022-12-07T14:32:57;7.88;;;5.50;;
76631;SDS011;65526;48.578;-4.520;2022-12-07T14:37:52;8.38;;;5.28;;
76631;SDS011;65526;48.578;-4.520;2022-12-07T14:40:28;8.05;;;5.90;;
76631;SDS011;65526;48.578;-4.520;2022-12-07T14:43:02;10.82;;;5.70;;
76631;SDS011;65526;48.578;-4.520;2022-12-07T14:45:32;9.80;;;6.65;;
76631;SDS011;65526;48.578;-4.520;2022-12-07T14:47:58;29.98;;;6.53;;
76631;SDS011;65526;48.578;-4.520;2022-12-07T14:50:25;7.75;;;5.63;;
76631;SDS011;65526;48.578;-4.520;2022-12-07T14:52:55;11.32;;;5.93;;
76631;SDS011;65526;48.578;-4.520;2022-12-07T14:55:29;10.98;;;6.15;;
76631;SDS011;65526;48.578;-4.520;2022-12-07T14:57:57;12.38;;;5.97;;
76631;SDS011;65526;48.578;-4.520;2022-12-07T15:00:25;9.27;;;5.88;;
76631;SDS011;65526;48.578;-4.520;2022-12-07T15:02:52;9.02;;;5.95;;
76631;SDS011;65526;48.578;-4.520;2022-12-07T15:05:19;9.88;;;5.55;;
76631;SDS011;65526;48.578;-4.520;2022-12-07T15:07:46;8.45;;;5.07;;
76631;SDS011;65526;48.578;-4.520;2022-12-07T15:10:24;7.95;;;5.63;;
76631;SDS011;65526;48.578;-4.520;2022-12-07T15:12:57;9.02;;;5.32;;
76631;SDS011;65526;48.578;-4.520;2022-12-07T15:15:43;8.07;;;5.40;;
76631;SDS011;65526;48.578;-4.520;2022-12-07T15:18:10;8.80;;;5.28;;
76631;SDS011;65526;48.578;-4.520;2022-12-07T15:20:36;9.63;;;6.00;;
76631;SDS011;65526;48.578;-4.520;2022-12-07T15:23:03;10.82;;;5.90;;
76631;SDS011;65526;48.578;-4.520;2022-12-07T15:25:29;8.02;;;5.80;;
76631;SDS011;65526;48.578;-4.520;2022-12-07T15:27:56;9.82;;;6.13;;
76631;SDS011;65526;48.578;-4.520;2022-12-07T15:30:22;9.15;;;5.90;;
76631;SDS011;65526;48.578;-4.520;2022-12-07T15:32:49;9.32;;;5.43;;
76631;SDS011;65526;48.578;-4.520;2022-12-07T15:35:16;11.40;;;6.13;;
76631;SDS011;65526;48.578;-4.520;2022-12-07T15:37:42;13.00;;;6.03;;
76631;SDS011;65526;48.578;-4.520;2022-12-07T15:40:09;10.77;;;6.22;;
76631;SDS011;65526;48.578;-4.520;2022-12-07T15:42:36;10.90;;;6.07;;
76631;SDS011;65526;48.578;-4.520;2022-12-07T15:45:03;9.07;;;5.90;;
76631;SDS011;65526;48.578;-4.520;2022-12-07T15:47:32;9.90;;;5.68;;
76631;SDS011;65526;48.578;-4.520;2022-12-07T15:50:06;11.07;;;6.13;;
76631;SDS011;65526;48.578;-4.520;2022-12-07T15:52:33;9.23;;;5.40;;
76631;SDS011;65526;48.578;-4.520;2022-12-07T15:55:00;9.18;;;5.88;;
76631;SDS011;65526;48.578;-4.520;2022-12-07T15:57:29;12.10;;;6.20;;
76631;SDS011;65526;48.578;-4.520;2022-12-07T15:59:56;11.10;;;5.85;;
76631;SDS011;65526;48.578;-4.520;2022-12-07T16:02:23;10.57;;;6.20;;
76631;SDS011;65526;48.578;-4.520;2022-12-07T16:04:50;9.25;;;6.10;;
76631;SDS011;65526;48.578;-4.520;2022-12-07T16:07:17;8.98;;;5.78;;
76631;SDS011;65526;48.578;-4.520;2022-12-07T16:09:44;9.32;;;6.15;;
76631;SDS011;65526;48.578;-4.520;2022-12-07T16:12:12;9.55;;;5.72;;
76631;SDS011;65526;48.578;-4.520;2022-12-07T16:14:39;11.60;;;6.22;;
76631;SDS011;65526;48.578;-4.520;2022-12-07T16:17:07;8.95;;;5.88;;
76631;SDS011;65526;48.578;-4.520;2022-12-07T16:19:35;12.15;;;7.57;;
76631;SDS011;65526;48.578;-4.520;2022-12-07T16:22:02;13.38;;;7.05;;
76631;SDS011;65526;48.578;-4.520;2022-12-07T16:24:30;12.00;;;6.80;;
76631;SDS011;65526;48.578;-4.520;2022-12-07T16:26:57;11.20;;;6.57;;
76631;SDS011;65526;48.578;-4.520;2022-12-07T16:29:23;9.88;;;6.82;;
76631;SDS011;65526;48.578;-4.520;2022-12-07T16:31:50;9.43;;;6.07;;
76631;SDS011;65526;48.578;-4.520;2022-12-07T16:34:17;10.93;;;7.03;;
76631;SDS011;65526;48.578;-4.520;2022-12-07T16:36:44;13.90;;;8.52;;
76631;SDS011;65526;48.578;-4.520;2022-12-07T16:39:11;16.02;;;9.63;;
76631;SDS011;65526;48.578;-4.520;2022-12-07T16:41:37;12.20;;;7.53;;
76631;SDS011;65526;48.578;-4.520;2022-12-07T16:44:04;14.60;;;7.82;;
76631;SDS011;65526;48.578;-4.520;2022-12-07T16:46:33;15.65;;;7.68;;
76631;SDS011;65526;48.578;-4.520;2022-12-07T16:49:00;15.25;;;7.75;;
76631;SDS011;65526;48.578;-4.520;2022-12-07T16:51:26;10.77;;;6.85;;
76631;SDS011;65526;48.578;-4.520;2022-12-07T16:53:53;12.95;;;7.78;;
76631;SDS011;65526;48.578;-4.520;2022-12-07T16:56:20;13.07;;;8.48;;
76631;SDS011;65526;48.578;-4.520;2022-12-07T16:58:46;15.75;;;8.48;;
76631;SDS011;65526;48.578;-4.520;2022-12-07T17:01:16;12.88;;;8.15;;